sensor_id;sensor_type;location;lat;lon;timestamp;P1;durP1;ratioP1;P2;durP2;ratioP2
72785;SDS011;60902;53.876;10.674;2022-07-09T00:00:07;4.68;;;2.03;;
72785;SDS011;60902;53.876;10.674;2022-07-09T00:00:19;4.50;;;2.00;;
72785;SDS011;60902;53.876;10.674;2022-07-09T00:00:31;4.13;;;1.95;;
72785;SDS011;60902;53.876;10.674;2022-07-09T00:00:41;4.78;;;1.90;;
72785;SDS011;60902;53.876;10.674;2022-07-09T00:00:52;5.07;;;1.95;;
72785;SDS011;60902;53.876;10.674;2022-07-09T00:01:04;4.95;;;1.95;;
72785;SDS011;60902;53.876;10.674;2022-07-09T00:01:15;5.15;;;2.00;;
72785;SDS011;60902;53.876;10.674;2022-07-09T00:01:26;5.07;;;1.93;;
72785;SDS011;60902;53.876;10.674;2022-07-09T00:01:38;5.07;;;2.03;;
72785;SDS011;60902;53.876;10.674;2022-07-09T00:01:49;4.65;;;1.90;;
72785;SDS011;60902;53.876;10.674;2022-07-09T00:02:00;4.32;;;1.70;;
72785;SDS011;60902;53.876;10.674;2022-07-09T00:02:11;4.18;;;1.63;;
72785;SDS011;60902;53.876;10.674;2022-07-09T00:02:22;4.70;;;1.70;;
72785;SDS011;60902;53.876;10.674;2022-07-09T00:02:33;5.10;;;1.85;;
72785;SDS011;60902;53.876;10.674;2022-07-09T00:02:44;5.32;;;1.88;;
72785;SDS011;60902;53.876;10.674;2022-07-09T00:02:55;5.35;;;1.90;;
72785;SDS011;60902;53.876;10.674;2022-07-09T00:03:07;5.45;;;1.88;;
72785;SDS011;60902;53.876;10.674;2022-07-09T00:03:18;5.25;;;1.60;;
72785;SDS011;60902;53.876;10.674;2022-07-09T00:03:29;4.47;;;1.52;;
72785;SDS011;60902;53.876;10.674;2022-07-09T00:03:40;4.72;;;1.85;;
72785;SDS011;60902;53.876;10.674;2022-07-09T00:03:51;4.88;;;1.92;;
72785;SDS011;60902;53.876;10.674;2022-07-09T00:04:02;6.10;;;2.20;;
72785;SDS011;60902;53.876;10.674;2022-07-09T00:04:13;6.07;;;2.13;;
72785;SDS011;60902;53.876;10.674;2022-07-09T00:04:25;6.20;;;2.10;;
72785;SDS011;60902;53.876;10.674;2022-07-09T00:04:36;5.45;;;1.92;;
72785;SDS011;60902;53.876;10.674;2022-07-09T00:04:47;5.15;;;1.90;;
72785;SDS011;60902;53.876;10.674;2022-07-09T00:04:58;4.85;;;1.90;;
72785;SDS011;60902;53.876;10.674;2022-07-09T00:05:09;4.40;;;1.90;;
72785;SDS011;60902;53.876;10.674;2022-07-09T00:05:22;4.80;;;2.00;;
72785;SDS011;60902;53.876;10.674;2022-07-09T00:05:33;4.60;;;1.98;;
72785;SDS011;60902;53.876;10.674;2022-07-09T00:05:44;4.47;;;1.95;;
72785;SDS011;60902;53.876;10.674;2022-07-09T00:05:55;4.28;;;1.90;;
72785;SDS011;60902;53.876;10.674;2022-07-09T00:06:07;4.82;;;2.00;;
72785;SDS011;60902;53.876;10.674;2022-07-09T00:06:18;5.00;;;2.00;;
72785;SDS011;60902;53.876;10.674;2022-07-09T00:06:29;5.10;;;2.00;;
72785;SDS011;60902;53.876;10.674;2022-07-09T00:06:41;5.60;;;1.92;;
72785;SDS011;60902;53.876;10.674;2022-07-09T00:06:52;5.32;;;1.80;;
72785;SDS011;60902;53.876;10.674;2022-07-09T00:07:03;5.32;;;1.70;;
72785;SDS011;60902;53.876;10.674;2022-07-09T00:07:14;4.40;;;1.92;;
72785;SDS011;60902;53.876;10.674;2022-07-09T00:07:25;5.00;;;2.00;;
72785;SDS011;60902;53.876;10.674;2022-07-09T00:07:36;5.57;;;2.10;;
72785;SDS011;60902;53.876;10.674;2022-07-09T00:07:48;5.18;;;1.98;;
72785;SDS011;60902;53.876;10.674;2022-07-09T00:07:59;5.07;;;1.83;;
72785;SDS011;60902;53.876;10.674;2022-07-09T00:08:10;4.97;;;1.90;;
72785;SDS011;60902;53.876;10.674;2022-07-09T00:08:21;5.63;;;2.25;;
72785;SDS011;60902;53.876;10.674;2022-07-09T00:08:32;5.13;;;2.20;;
72785;SDS011;60902;53.876;10.674;2022-07-09T00:08:44;5.70;;;2.23;;
72785;SDS011;60902;53.876;10.674;2022-07-09T00:08:55;6.03;;;1.90;;
72785;SDS011;60902;53.876;10.674;2022-07-09T00:09:07;5.78;;;1.92;;
72785;SDS011;60902;53.876;10.674;2022-07-09T00:09:18;5.35;;;2.00;;
72785;SDS011;60902;53.876;10.674;2022-07-09T00:09:29;4.72;;;1.90;;
72785;SDS011;60902;53.876;10.674;2022-07-09T00:09:40;4.72;;;1.88;;
72785;SDS011;60902;53.876;10.674;2022-07-09T00:09:51;4.88;;;1.65;;
72785;SDS011;60902;53.876;10.674;2022-07-09T00:10:02;5.30;;;1.73;;
72785;SDS011;60902;53.876;10.674;2022-07-09T00:10:13;5.50;;;2.03;;
72785;SDS011;60902;53.876;10.674;2022-07-09T00:10:25;5.57;;;2.30;;
72785;SDS011;60902;53.876;10.674;2022-07-09T00:10:36;5.50;;;2.22;;
72785;SDS011;60902;53.876;10.674;2022-07-09T00:10:47;6.75;;;2.17;;
72785;SDS011;60902;53.876;10.674;2022-07-09T00:10:58;6.93;;;2.08;;
72785;SDS011;60902;53.876;10.674;2022-07-09T00:11:09;6.28;;;2.15;;
72785;SDS011;60902;53.876;10.674;2022-07-09T00:11:20;4.72;;;1.83;;
72785;SDS011;60902;53.876;10.674;2022-07-09T00:11:31;4.72;;;1.70;;
72785;SDS011;60902;53.876;10.674;2022-07-09T00:11:43;4.60;;;1.67;;
72785;SDS011;60902;53.876;10.674;2022-07-09T00:11:54;5.53;;;1.83;;
72785;SDS011;60902;53.876;10.674;2022-07-09T00:12:07;5.57;;;2.08;;
72785;SDS011;60902;53.876;10.674;2022-07-09T00:12:18;5.43;;;2.00;;
72785;SDS011;60902;53.876;10.674;2022-07-09T00:12:29;4.75;;;1.80;;
72785;SDS011;60902;53.876;10.674;2022-07-09T00:12:40;4.80;;;1.67;;
72785;SDS011;60902;53.876;10.674;2022-07-09T00:12:51;4.80;;;1.70;;
72785;SDS011;60902;53.876;10.674;2022-07-09T00:13:02;4.80;;;1.77;;
72785;SDS011;60902;53.876;10.674;2022-07-09T00:13:13;4.35;;;1.80;;
72785;SDS011;60902;53.876;10.674;2022-07-09T00:13:25;4.43;;;1.75;;
72785;SDS011;60902;53.876;10.674;2022-07-09T00:13:36;4.90;;;1.83;;
72785;SDS011;60902;53.876;10.674;2022-07-09T00:13:50;4.80;;;1.98;;
72785;SDS011;60902;53.876;10.674;2022-07-09T00:14:00;4.70;;;2.00;;
72785;SDS011;60902;53.876;10.674;2022-07-09T00:14:11;4.32;;;1.90;;
72785;SDS011;60902;53.876;10.674;2022-07-09T00:14:22;4.97;;;1.88;;
72785;SDS011;60902;53.876;10.674;2022-07-09T00:14:33;5.50;;;1.92;;
72785;SDS011;60902;53.876;10.674;2022-07-09T00:14:45;5.63;;;2.00;;
72785;SDS011;60902;53.876;10.674;2022-07-09T00:14:57;4.97;;;2.10;;
72785;SDS011;60902;53.876;10.674;2022-07-09T00:15:08;4.90;;;2.10;;
72785;SDS011;60902;53.876;10.674;2022-07-09T00:15:19;4.50;;;1.88;;
72785;SDS011;60902;53.876;10.674;2022-07-09T00:15:30;4.40;;;1.77;;
72785;SDS011;60902;53.876;10.674;2022-07-09T00:15:41;4.53;;;1.77;;
72785;SDS011;60902;53.876;10.674;2022-07-09T00:15:53;4.65;;;1.90;;
72785;SDS011;60902;53.876;10.674;2022-07-09T00:16:05;4.80;;;1.90;;
72785;SDS011;60902;53.876;10.674;2022-07-09T00:16:16;4.50;;;1.80;;
72785;SDS011;60902;53.876;10.674;2022-07-09T00:16:27;3.95;;;1.75;;
72785;SDS011;60902;53.876;10.674;2022-07-09T00:16:38;4.45;;;1.83;;
72785;SDS011;60902;53.876;10.674;2022-07-09T00:16:49;5.00;;;1.83;;
72785;SDS011;60902;53.876;10.674;2022-07-09T00:17:00;5.13;;;1.80;;
72785;SDS011;60902;53.876;10.674;2022-07-09T00:17:12;4.63;;;1.90;;
72785;SDS011;60902;53.876;10.674;2022-07-09T00:17:23;4.78;;;2.15;;
72785;SDS011;60902;53.876;10.674;2022-07-09T00:17:35;4.95;;;2.20;;
72785;SDS011;60902;53.876;10.674;2022-07-09T00:17:47;5.10;;;2.10;;
72785;SDS011;60902;53.876;10.674;2022-07-09T00:17:58;6.00;;;2.20;;
72785;SDS011;60902;53.876;10.674;2022-07-09T00:18:09;6.40;;;2.13;;
72785;SDS011;60902;53.876;10.674;2022-07-09T00:18:20;6.38;;;2.00;;
72785;SDS011;60902;53.876;10.674;2022-07-09T00:18:31;5.55;;;2.03;;
72785;SDS011;60902;53.876;10.674;2022-07-09T00:18:42;5.60;;;2.10;;
72785;SDS011;60902;53.876;10.674;2022-07-09T00:18:53;5.68;;;2.25;;
72785;SDS011;60902;53.876;10.674;2022-07-09T00:19:04;5.90;;;2.20;;
72785;SDS011;60902;53.876;10.674;2022-07-09T00:19:16;5.10;;;1.88;;
72785;SDS011;60902;53.876;10.674;2022-07-09T00:19:27;5.05;;;1.90;;
72785;SDS011;60902;53.876;10.674;2022-07-09T00:19:38;5.00;;;1.80;;
72785;SDS011;60902;53.876;10.674;2022-07-09T00:19:49;5.07;;;2.00;;
72785;SDS011;60902;53.876;10.674;2022-07-09T00:20:00;4.82;;;2.00;;
72785;SDS011;60902;53.876;10.674;2022-07-09T00:20:12;4.72;;;2.10;;
72785;SDS011;60902;53.876;10.674;2022-07-09T00:20:23;5.32;;;2.13;;
72785;SDS011;60902;53.876;10.674;2022-07-09T00:20:34;5.93;;;2.13;;
72785;SDS011;60902;53.876;10.674;2022-07-09T00:20:45;5.72;;;2.05;;
72785;SDS011;60902;53.876;10.674;2022-07-09T00:20:57;4.70;;;1.90;;
72785;SDS011;60902;53.876;10.674;2022-07-09T00:21:08;4.30;;;1.92;;
72785;SDS011;60902;53.876;10.674;2022-07-09T00:21:19;4.20;;;1.90;;
72785;SDS011;60902;53.876;10.674;2022-07-09T00:21:30;4.72;;;1.90;;
72785;SDS011;60902;53.876;10.674;2022-07-09T00:21:41;4.88;;;1.80;;
72785;SDS011;60902;53.876;10.674;2022-07-09T00:21:53;6.00;;;1.73;;
72785;SDS011;60902;53.876;10.674;2022-07-09T00:22:04;5.60;;;1.73;;
72785;SDS011;60902;53.876;10.674;2022-07-09T00:22:15;5.28;;;1.73;;
72785;SDS011;60902;53.876;10.674;2022-07-09T00:22:27;5.05;;;1.90;;
72785;SDS011;60902;53.876;10.674;2022-07-09T00:22:38;5.00;;;1.95;;
72785;SDS011;60902;53.876;10.674;2022-07-09T00:22:49;5.22;;;2.00;;
72785;SDS011;60902;53.876;10.674;2022-07-09T00:23:00;4.85;;;1.88;;
72785;SDS011;60902;53.876;10.674;2022-07-09T00:23:11;4.68;;;1.88;;
72785;SDS011;60902;53.876;10.674;2022-07-09T00:23:22;4.35;;;1.75;;
72785;SDS011;60902;53.876;10.674;2022-07-09T00:23:33;4.50;;;1.60;;
72785;SDS011;60902;53.876;10.674;2022-07-09T00:23:46;5.18;;;1.77;;
72785;SDS011;60902;53.876;10.674;2022-07-09T00:23:57;5.78;;;1.83;;
72785;SDS011;60902;53.876;10.674;2022-07-09T00:24:08;5.72;;;1.85;;
72785;SDS011;60902;53.876;10.674;2022-07-09T00:24:19;5.32;;;1.77;;
72785;SDS011;60902;53.876;10.674;2022-07-09T00:24:30;4.80;;;1.67;;
72785;SDS011;60902;53.876;10.674;2022-07-09T00:24:41;4.77;;;1.80;;
72785;SDS011;60902;53.876;10.674;2022-07-09T00:24:52;4.78;;;1.85;;
72785;SDS011;60902;53.876;10.674;2022-07-09T00:25:03;4.80;;;2.03;;
72785;SDS011;60902;53.876;10.674;2022-07-09T00:25:15;4.93;;;1.92;;
72785;SDS011;60902;53.876;10.674;2022-07-09T00:25:26;5.05;;;1.92;;
72785;SDS011;60902;53.876;10.674;2022-07-09T00:25:37;4.93;;;1.80;;
72785;SDS011;60902;53.876;10.674;2022-07-09T00:25:48;4.87;;;1.80;;
72785;SDS011;60902;53.876;10.674;2022-07-09T00:25:59;5.13;;;1.90;;
72785;SDS011;60902;53.876;10.674;2022-07-09T00:26:10;5.10;;;1.83;;
72785;SDS011;60902;53.876;10.674;2022-07-09T00:26:21;5.03;;;1.90;;
72785;SDS011;60902;53.876;10.674;2022-07-09T00:26:33;5.38;;;1.92;;
72785;SDS011;60902;53.876;10.674;2022-07-09T00:26:44;4.93;;;1.90;;
72785;SDS011;60902;53.876;10.674;2022-07-09T00:26:55;4.78;;;1.70;;
72785;SDS011;60902;53.876;10.674;2022-07-09T00:27:06;4.68;;;1.60;;
72785;SDS011;60902;53.876;10.674;2022-07-09T00:27:17;5.22;;;1.60;;
72785;SDS011;60902;53.876;10.674;2022-07-09T00:27:28;5.13;;;1.75;;
72785;SDS011;60902;53.876;10.674;2022-07-09T00:27:39;5.65;;;1.88;;
72785;SDS011;60902;53.876;10.674;2022-07-09T00:27:50;5.55;;;1.90;;
72785;SDS011;60902;53.876;10.674;2022-07-09T00:28:02;5.60;;;2.03;;
72785;SDS011;60902;53.876;10.674;2022-07-09T00:28:13;5.60;;;2.08;;
72785;SDS011;60902;53.876;10.674;2022-07-09T00:28:24;5.20;;;1.95;;
72785;SDS011;60902;53.876;10.674;2022-07-09T00:28:35;5.38;;;1.80;;
72785;SDS011;60902;53.876;10.674;2022-07-09T00:28:46;5.97;;;1.90;;
72785;SDS011;60902;53.876;10.674;2022-07-09T00:28:57;5.63;;;2.08;;
72785;SDS011;60902;53.876;10.674;2022-07-09T00:29:08;6.43;;;2.00;;
72785;SDS011;60902;53.876;10.674;2022-07-09T00:29:20;5.97;;;1.80;;
72785;SDS011;60902;53.876;10.674;2022-07-09T00:29:31;5.70;;;1.70;;
72785;SDS011;60902;53.876;10.674;2022-07-09T00:29:42;4.57;;;1.83;;
72785;SDS011;60902;53.876;10.674;2022-07-09T00:29:53;5.00;;;1.92;;
72785;SDS011;60902;53.876;10.674;2022-07-09T00:30:04;5.20;;;2.10;;
72785;SDS011;60902;53.876;10.674;2022-07-09T00:30:16;5.13;;;2.10;;
72785;SDS011;60902;53.876;10.674;2022-07-09T00:30:27;5.60;;;2.08;;
72785;SDS011;60902;53.876;10.674;2022-07-09T00:30:38;5.40;;;1.90;;
72785;SDS011;60902;53.876;10.674;2022-07-09T00:30:49;5.35;;;1.80;;
72785;SDS011;60902;53.876;10.674;2022-07-09T00:31:00;4.60;;;1.80;;
72785;SDS011;60902;53.876;10.674;2022-07-09T00:31:11;4.95;;;1.80;;
72785;SDS011;60902;53.876;10.674;2022-07-09T00:31:23;4.72;;;1.73;;
72785;SDS011;60902;53.876;10.674;2022-07-09T00:31:34;4.57;;;1.88;;
72785;SDS011;60902;53.876;10.674;2022-07-09T00:31:44;4.70;;;2.00;;
72785;SDS011;60902;53.876;10.674;2022-07-09T00:31:56;4.53;;;1.77;;
72785;SDS011;60902;53.876;10.674;2022-07-09T00:32:07;4.25;;;1.60;;
72785;SDS011;60902;53.876;10.674;2022-07-09T00:32:19;3.92;;;1.70;;
72785;SDS011;60902;53.876;10.674;2022-07-09T00:32:30;4.25;;;1.70;;
72785;SDS011;60902;53.876;10.674;2022-07-09T00:32:41;5.15;;;1.80;;
72785;SDS011;60902;53.876;10.674;2022-07-09T00:32:53;5.70;;;1.92;;
72785;SDS011;60902;53.876;10.674;2022-07-09T00:33:04;5.75;;;2.15;;
72785;SDS011;60902;53.876;10.674;2022-07-09T00:33:15;5.45;;;2.10;;
72785;SDS011;60902;53.876;10.674;2022-07-09T00:33:26;5.15;;;1.95;;
72785;SDS011;60902;53.876;10.674;2022-07-09T00:33:38;4.43;;;1.98;;
72785;SDS011;60902;53.876;10.674;2022-07-09T00:33:49;5.43;;;2.05;;
72785;SDS011;60902;53.876;10.674;2022-07-09T00:34:00;5.65;;;2.00;;
72785;SDS011;60902;53.876;10.674;2022-07-09T00:34:11;5.57;;;1.92;;
72785;SDS011;60902;53.876;10.674;2022-07-09T00:34:22;5.38;;;2.00;;
72785;SDS011;60902;53.876;10.674;2022-07-09T00:34:33;4.95;;;2.00;;
72785;SDS011;60902;53.876;10.674;2022-07-09T00:34:44;5.07;;;2.10;;
72785;SDS011;60902;53.876;10.674;2022-07-09T00:34:55;4.87;;;2.00;;
72785;SDS011;60902;53.876;10.674;2022-07-09T00:35:07;5.30;;;1.95;;
72785;SDS011;60902;53.876;10.674;2022-07-09T00:35:18;5.40;;;1.90;;
72785;SDS011;60902;53.876;10.674;2022-07-09T00:35:29;5.10;;;1.90;;
72785;SDS011;60902;53.876;10.674;2022-07-09T00:35:40;4.95;;;1.83;;
72785;SDS011;60902;53.876;10.674;2022-07-09T00:35:51;4.53;;;1.75;;
72785;SDS011;60902;53.876;10.674;2022-07-09T00:36:02;5.13;;;1.70;;
72785;SDS011;60902;53.876;10.674;2022-07-09T00:36:14;4.97;;;1.95;;
72785;SDS011;60902;53.876;10.674;2022-07-09T00:36:25;4.68;;;1.80;;
72785;SDS011;60902;53.876;10.674;2022-07-09T00:36:37;4.30;;;1.85;;
72785;SDS011;60902;53.876;10.674;2022-07-09T00:36:48;5.13;;;1.70;;
72785;SDS011;60902;53.876;10.674;2022-07-09T00:36:59;5.38;;;1.88;;
72785;SDS011;60902;53.876;10.674;2022-07-09T00:37:10;5.50;;;1.92;;
72785;SDS011;60902;53.876;10.674;2022-07-09T00:37:21;5.17;;;1.90;;
72785;SDS011;60902;53.876;10.674;2022-07-09T00:37:32;5.55;;;1.83;;
72785;SDS011;60902;53.876;10.674;2022-07-09T00:37:43;5.57;;;1.95;;
72785;SDS011;60902;53.876;10.674;2022-07-09T00:37:54;5.72;;;2.00;;
72785;SDS011;60902;53.876;10.674;2022-07-09T00:38:06;5.80;;;1.80;;
72785;SDS011;60902;53.876;10.674;2022-07-09T00:38:17;6.03;;;1.80;;
72785;SDS011;60902;53.876;10.674;2022-07-09T00:38:28;5.55;;;1.83;;
72785;SDS011;60902;53.876;10.674;2022-07-09T00:38:39;5.40;;;1.88;;
72785;SDS011;60902;53.876;10.674;2022-07-09T00:38:51;5.28;;;1.80;;
72785;SDS011;60902;53.876;10.674;2022-07-09T00:39:02;5.28;;;1.70;;
72785;SDS011;60902;53.876;10.674;2022-07-09T00:39:13;6.55;;;1.95;;
72785;SDS011;60902;53.876;10.674;2022-07-09T00:39:25;6.43;;;2.00;;
72785;SDS011;60902;53.876;10.674;2022-07-09T00:39:36;5.28;;;2.08;;
72785;SDS011;60902;53.876;10.674;2022-07-09T00:39:47;4.63;;;1.92;;
72785;SDS011;60902;53.876;10.674;2022-07-09T00:39:58;4.97;;;2.10;;
72785;SDS011;60902;53.876;10.674;2022-07-09T00:40:09;5.03;;;1.90;;
72785;SDS011;60902;53.876;10.674;2022-07-09T00:40:21;4.72;;;1.80;;
72785;SDS011;60902;53.876;10.674;2022-07-09T00:40:32;4.40;;;1.63;;
72785;SDS011;60902;53.876;10.674;2022-07-09T00:40:44;4.57;;;1.60;;
72785;SDS011;60902;53.876;10.674;2022-07-09T00:40:55;5.00;;;1.70;;
72785;SDS011;60902;53.876;10.674;2022-07-09T00:41:07;5.07;;;1.80;;
72785;SDS011;60902;53.876;10.674;2022-07-09T00:41:18;4.90;;;1.80;;
72785;SDS011;60902;53.876;10.674;2022-07-09T00:41:29;5.13;;;1.80;;
72785;SDS011;60902;53.876;10.674;2022-07-09T00:41:40;5.30;;;1.80;;
72785;SDS011;60902;53.876;10.674;2022-07-09T00:42:00;5.05;;;1.90;;
72785;SDS011;60902;53.876;10.674;2022-07-09T00:42:12;4.30;;;1.77;;
72785;SDS011;60902;53.876;10.674;2022-07-09T00:42:23;4.80;;;1.90;;
72785;SDS011;60902;53.876;10.674;2022-07-09T00:42:35;5.60;;;2.00;;
72785;SDS011;60902;53.876;10.674;2022-07-09T00:42:46;5.18;;;1.95;;
72785;SDS011;60902;53.876;10.674;2022-07-09T00:42:58;5.72;;;1.98;;
72785;SDS011;60902;53.876;10.674;2022-07-09T00:43:15;5.47;;;2.00;;
72785;SDS011;60902;53.876;10.674;2022-07-09T00:43:27;5.43;;;2.13;;
72785;SDS011;60902;53.876;10.674;2022-07-09T00:43:45;4.95;;;1.95;;
72785;SDS011;60902;53.876;10.674;2022-07-09T00:43:57;4.57;;;1.88;;
72785;SDS011;60902;53.876;10.674;2022-07-09T00:44:08;5.15;;;1.95;;
72785;SDS011;60902;53.876;10.674;2022-07-09T00:44:19;5.18;;;1.90;;
72785;SDS011;60902;53.876;10.674;2022-07-09T00:44:30;5.90;;;2.03;;
72785;SDS011;60902;53.876;10.674;2022-07-09T00:44:40;5.23;;;1.97;;
72785;SDS011;60902;53.876;10.674;2022-07-09T00:44:51;5.18;;;1.90;;
72785;SDS011;60902;53.876;10.674;2022-07-09T00:45:04;5.70;;;1.90;;
72785;SDS011;60902;53.876;10.674;2022-07-09T00:45:16;6.07;;;1.95;;
72785;SDS011;60902;53.876;10.674;2022-07-09T00:45:27;6.07;;;1.98;;
72785;SDS011;60902;53.876;10.674;2022-07-09T00:45:38;4.53;;;1.75;;
72785;SDS011;60902;53.876;10.674;2022-07-09T00:45:49;4.40;;;1.63;;
72785;SDS011;60902;53.876;10.674;2022-07-09T00:46:00;4.72;;;1.80;;
72785;SDS011;60902;53.876;10.674;2022-07-09T00:46:11;4.90;;;2.00;;
72785;SDS011;60902;53.876;10.674;2022-07-09T00:46:22;5.63;;;2.00;;
72785;SDS011;60902;53.876;10.674;2022-07-09T00:46:34;5.90;;;1.90;;
72785;SDS011;60902;53.876;10.674;2022-07-09T00:46:45;6.28;;;2.05;;
72785;SDS011;60902;53.876;10.674;2022-07-09T00:46:56;5.45;;;2.20;;
72785;SDS011;60902;53.876;10.674;2022-07-09T00:47:08;5.43;;;2.28;;
72785;SDS011;60902;53.876;10.674;2022-07-09T00:47:19;5.28;;;2.00;;
72785;SDS011;60902;53.876;10.674;2022-07-09T00:47:30;5.28;;;1.88;;
72785;SDS011;60902;53.876;10.674;2022-07-09T00:47:40;5.57;;;1.90;;
72785;SDS011;60902;53.876;10.674;2022-07-09T00:47:51;5.30;;;1.90;;
72785;SDS011;60902;53.876;10.674;2022-07-09T00:48:03;5.20;;;1.85;;
72785;SDS011;60902;53.876;10.674;2022-07-09T00:48:15;5.10;;;1.83;;
72785;SDS011;60902;53.876;10.674;2022-07-09T00:48:26;4.88;;;1.67;;
72785;SDS011;60902;53.876;10.674;2022-07-09T00:48:37;4.45;;;1.55;;
72785;SDS011;60902;53.876;10.674;2022-07-09T00:48:48;5.43;;;1.77;;
72785;SDS011;60902;53.876;10.674;2022-07-09T00:48:59;6.10;;;1.90;;
72785;SDS011;60902;53.876;10.674;2022-07-09T00:49:13;6.00;;;1.95;;
72785;SDS011;60902;53.876;10.674;2022-07-09T00:49:25;4.73;;;1.90;;
72785;SDS011;60902;53.876;10.674;2022-07-09T00:49:40;4.75;;;2.00;;
72785;SDS011;60902;53.876;10.674;2022-07-09T00:49:52;4.72;;;1.95;;
72785;SDS011;60902;53.876;10.674;2022-07-09T00:50:05;4.40;;;1.80;;
72785;SDS011;60902;53.876;10.674;2022-07-09T00:50:17;4.93;;;2.20;;
72785;SDS011;60902;53.876;10.674;2022-07-09T00:50:29;4.97;;;2.17;;
72785;SDS011;60902;53.876;10.674;2022-07-09T00:50:40;5.10;;;1.95;;
72785;SDS011;60902;53.876;10.674;2022-07-09T00:50:53;4.82;;;1.90;;
72785;SDS011;60902;53.876;10.674;2022-07-09T00:51:05;5.32;;;2.05;;
72785;SDS011;60902;53.876;10.674;2022-07-09T00:51:16;4.97;;;1.98;;
72785;SDS011;60902;53.876;10.674;2022-07-09T00:51:28;5.18;;;1.98;;
72785;SDS011;60902;53.876;10.674;2022-07-09T00:51:39;5.18;;;1.98;;
72785;SDS011;60902;53.876;10.674;2022-07-09T00:51:50;5.13;;;1.95;;
72785;SDS011;60902;53.876;10.674;2022-07-09T00:52:02;5.00;;;1.88;;
72785;SDS011;60902;53.876;10.674;2022-07-09T00:52:15;4.65;;;2.00;;
72785;SDS011;60902;53.876;10.674;2022-07-09T00:52:28;4.53;;;2.15;;
72785;SDS011;60902;53.876;10.674;2022-07-09T00:52:40;4.75;;;2.13;;
72785;SDS011;60902;53.876;10.674;2022-07-09T00:52:53;5.40;;;2.10;;
72785;SDS011;60902;53.876;10.674;2022-07-09T00:53:04;5.20;;;1.92;;
72785;SDS011;60902;53.876;10.674;2022-07-09T00:53:17;4.53;;;1.90;;
72785;SDS011;60902;53.876;10.674;2022-07-09T00:53:31;4.75;;;2.08;;
72785;SDS011;60902;53.876;10.674;2022-07-09T00:53:43;4.95;;;2.20;;
72785;SDS011;60902;53.876;10.674;2022-07-09T00:53:57;4.97;;;2.13;;
72785;SDS011;60902;53.876;10.674;2022-07-09T00:54:10;5.47;;;2.03;;
72785;SDS011;60902;53.876;10.674;2022-07-09T00:54:21;5.72;;;2.00;;
72785;SDS011;60902;53.876;10.674;2022-07-09T00:54:35;5.85;;;1.90;;
72785;SDS011;60902;53.876;10.674;2022-07-09T00:54:46;5.97;;;1.85;;
72785;SDS011;60902;53.876;10.674;2022-07-09T00:54:59;5.97;;;2.10;;
72785;SDS011;60902;53.876;10.674;2022-07-09T00:55:11;5.90;;;2.22;;
72785;SDS011;60902;53.876;10.674;2022-07-09T00:55:23;5.55;;;2.13;;
72785;SDS011;60902;53.876;10.674;2022-07-09T00:55:34;5.55;;;2.13;;
72785;SDS011;60902;53.876;10.674;2022-07-09T00:55:47;4.55;;;2.03;;
72785;SDS011;60902;53.876;10.674;2022-07-09T00:55:58;4.20;;;1.95;;
72785;SDS011;60902;53.876;10.674;2022-07-09T00:56:10;4.95;;;1.90;;
72785;SDS011;60902;53.876;10.674;2022-07-09T00:56:22;5.03;;;1.88;;
72785;SDS011;60902;53.876;10.674;2022-07-09T00:56:33;4.75;;;1.83;;
72785;SDS011;60902;53.876;10.674;2022-07-09T00:56:44;4.30;;;1.90;;
72785;SDS011;60902;53.876;10.674;2022-07-09T00:56:56;4.13;;;1.80;;
72785;SDS011;60902;53.876;10.674;2022-07-09T00:57:09;4.47;;;2.00;;
72785;SDS011;60902;53.876;10.674;2022-07-09T00:57:20;4.95;;;2.05;;
72785;SDS011;60902;53.876;10.674;2022-07-09T00:57:32;5.32;;;2.13;;
72785;SDS011;60902;53.876;10.674;2022-07-09T00:57:44;5.30;;;2.13;;
72785;SDS011;60902;53.876;10.674;2022-07-09T00:57:55;4.60;;;1.85;;
72785;SDS011;60902;53.876;10.674;2022-07-09T00:58:06;4.18;;;1.77;;
72785;SDS011;60902;53.876;10.674;2022-07-09T00:58:18;4.22;;;1.67;;
72785;SDS011;60902;53.876;10.674;2022-07-09T00:58:32;4.72;;;1.80;;
72785;SDS011;60902;53.876;10.674;2022-07-09T00:58:44;5.00;;;2.15;;
72785;SDS011;60902;53.876;10.674;2022-07-09T00:58:57;4.97;;;2.10;;
72785;SDS011;60902;53.876;10.674;2022-07-09T00:59:09;5.55;;;2.20;;
72785;SDS011;60902;53.876;10.674;2022-07-09T00:59:22;5.90;;;2.13;;
72785;SDS011;60902;53.876;10.674;2022-07-09T00:59:34;5.35;;;2.03;;
72785;SDS011;60902;53.876;10.674;2022-07-09T00:59:45;4.97;;;1.92;;
72785;SDS011;60902;53.876;10.674;2022-07-09T00:59:57;4.50;;;2.00;;
72785;SDS011;60902;53.876;10.674;2022-07-09T01:00:09;5.00;;;2.10;;
72785;SDS011;60902;53.876;10.674;2022-07-09T01:00:20;5.00;;;2.30;;
72785;SDS011;60902;53.876;10.674;2022-07-09T01:00:33;4.93;;;2.30;;
72785;SDS011;60902;53.876;10.674;2022-07-09T01:00:45;5.25;;;2.17;;
72785;SDS011;60902;53.876;10.674;2022-07-09T01:00:56;5.07;;;2.30;;
72785;SDS011;60902;53.876;10.674;2022-07-09T01:01:07;5.25;;;2.22;;
72785;SDS011;60902;53.876;10.674;2022-07-09T01:01:19;5.63;;;2.05;;
72785;SDS011;60902;53.876;10.674;2022-07-09T01:01:30;5.43;;;2.22;;
72785;SDS011;60902;53.876;10.674;2022-07-09T01:01:41;5.47;;;2.17;;
72785;SDS011;60902;53.876;10.674;2022-07-09T01:01:52;5.18;;;2.05;;
72785;SDS011;60902;53.876;10.674;2022-07-09T01:02:05;5.13;;;1.90;;
72785;SDS011;60902;53.876;10.674;2022-07-09T01:02:17;4.65;;;2.03;;
72785;SDS011;60902;53.876;10.674;2022-07-09T01:02:32;4.43;;;1.90;;
72785;SDS011;60902;53.876;10.674;2022-07-09T01:02:44;4.65;;;1.75;;
72785;SDS011;60902;53.876;10.674;2022-07-09T01:02:56;4.50;;;1.70;;
72785;SDS011;60902;53.876;10.674;2022-07-09T01:03:07;4.35;;;1.77;;
72785;SDS011;60902;53.876;10.674;2022-07-09T01:03:18;4.43;;;1.90;;
72785;SDS011;60902;53.876;10.674;2022-07-09T01:03:30;5.25;;;2.10;;
72785;SDS011;60902;53.876;10.674;2022-07-09T01:03:41;5.22;;;2.00;;
72785;SDS011;60902;53.876;10.674;2022-07-09T01:03:51;5.50;;;2.03;;
72785;SDS011;60902;53.876;10.674;2022-07-09T01:04:04;5.70;;;2.20;;
72785;SDS011;60902;53.876;10.674;2022-07-09T01:04:15;5.72;;;2.10;;
72785;SDS011;60902;53.876;10.674;2022-07-09T01:04:26;5.20;;;2.03;;
72785;SDS011;60902;53.876;10.674;2022-07-09T01:04:38;4.90;;;1.83;;
72785;SDS011;60902;53.876;10.674;2022-07-09T01:04:49;4.50;;;1.70;;
72785;SDS011;60902;53.876;10.674;2022-07-09T01:05:00;4.90;;;1.90;;
72785;SDS011;60902;53.876;10.674;2022-07-09T01:05:11;4.55;;;1.80;;
72785;SDS011;60902;53.876;10.674;2022-07-09T01:05:23;4.85;;;1.85;;
72785;SDS011;60902;53.876;10.674;2022-07-09T01:05:34;4.47;;;1.70;;
72785;SDS011;60902;53.876;10.674;2022-07-09T01:05:45;4.68;;;1.77;;
72785;SDS011;60902;53.876;10.674;2022-07-09T01:05:56;4.95;;;1.73;;
72785;SDS011;60902;53.876;10.674;2022-07-09T01:06:08;5.45;;;1.90;;
72785;SDS011;60902;53.876;10.674;2022-07-09T01:06:19;5.53;;;2.10;;
72785;SDS011;60902;53.876;10.674;2022-07-09T01:06:30;5.10;;;2.15;;
72785;SDS011;60902;53.876;10.674;2022-07-09T01:06:42;5.13;;;2.22;;
72785;SDS011;60902;53.876;10.674;2022-07-09T01:06:53;5.00;;;2.20;;
72785;SDS011;60902;53.876;10.674;2022-07-09T01:07:04;5.40;;;2.08;;
72785;SDS011;60902;53.876;10.674;2022-07-09T01:07:15;5.43;;;2.13;;
72785;SDS011;60902;53.876;10.674;2022-07-09T01:07:26;5.00;;;2.03;;
72785;SDS011;60902;53.876;10.674;2022-07-09T01:07:37;4.82;;;1.88;;
72785;SDS011;60902;53.876;10.674;2022-07-09T01:07:49;4.63;;;1.85;;
72785;SDS011;60902;53.876;10.674;2022-07-09T01:08:00;5.20;;;2.10;;